createdAt,value
2019-04-29T00:00:07.280Z,97345.90
2019-04-29T00:01:01.314Z,97355.47
2019-04-29T00:01:52.292Z,97351.37
2019-04-29T00:02:42.354Z,97356.83
2019-04-29T00:03:33.421Z,97348.16
2019-04-29T00:04:24.385Z,97353.63
2019-04-29T00:05:14.727Z,97356.92
2019-04-29T00:06:05.286Z,97354.73
2019-04-29T00:06:55.076Z,97360.51
2019-04-29T00:07:46.424Z,97349.02
2019-04-29T00:08:37.816Z,97364.61
2019-04-29T00:09:30.878Z,97348.20
2019-04-29T00:10:19.548Z,97348.77
2019-04-29T00:11:09.927Z,97355.38
2019-04-29T00:12:00.348Z,97349.36
2019-04-29T00:12:51.580Z,97351.28
2019-04-29T00:13:42.409Z,97348.77
2019-04-29T00:14:32.220Z,97347.98
2019-04-29T00:15:40.969Z,97354.23
2019-04-29T00:16:38.792Z,97355.30
2019-04-29T00:17:34.968Z,97356.66
2019-04-29T00:18:30.701Z,97351.75
2019-04-29T00:19:45.050Z,97358.59
2019-04-29T00:20:44.799Z,97352.56
2019-04-29T00:21:35.216Z,97352.01
2019-04-29T00:22:26.062Z,97354.99
2019-04-29T00:23:17.586Z,97354.19
2019-04-29T00:24:08.451Z,97347.60
2019-04-29T00:24:58.462Z,97354.44
2019-04-29T00:25:49.296Z,97348.97
2019-04-29T00:26:39.611Z,97348.41
2019-04-29T00:27:29.772Z,97345.67
2019-04-29T00:28:20.308Z,97346.70
2019-04-29T00:29:11.295Z,97348.89
2019-04-29T00:30:01.484Z,97343.67
2019-04-29T00:30:52.031Z,97339.27
2019-04-29T00:31:42.343Z,97342.55
2019-04-29T00:32:32.723Z,97348.83
2019-04-29T00:33:22.892Z,97344.17
2019-04-29T00:34:13.800Z,97351.48
2019-04-29T00:35:04.347Z,97347.38
2019-04-29T00:35:55.053Z,97346.52
2019-04-29T00:36:54.203Z,97351.98
2019-04-29T00:38:01.787Z,97343.23
2019-04-29T00:39:11.932Z,97350.28
2019-04-29T00:40:21.691Z,97347.00
2019-04-29T00:41:34.374Z,97342.89
2019-04-29T00:42:41.184Z,97342.34
2019-04-29T00:43:44.638Z,97345.88
2019-04-29T00:44:34.912Z,97344.77
2019-04-29T00:45:25.308Z,97348.87
2019-04-29T00:46:15.880Z,97348.61
2019-04-29T00:47:06.607Z,97346.38
2019-04-29T00:47:56.510Z,97337.38
2019-04-29T00:48:47.164Z,97351.85
2019-04-29T00:49:37.280Z,97349.13
2019-04-29T00:50:27.949Z,97354.00
2019-04-29T00:51:18.284Z,97350.15
2019-04-29T00:52:09.642Z,97344.12
2019-04-29T00:52:59.558Z,97342.76
2019-04-29T00:53:49.900Z,97340.58
2019-04-29T00:54:43.596Z,97335.36
2019-04-29T00:55:34.584Z,97343.01
2019-04-29T00:56:25.355Z,97339.77
2019-04-29T00:57:16.358Z,97341.14
2019-04-29T00:58:06.539Z,97341.14
2019-04-29T00:58:56.938Z,97330.54
2019-04-29T00:59:47.711Z,97340.66
2019-04-29T01:00:39.151Z,97338.73
2019-04-29T01:01:29.307Z,97337.12
2019-04-29T01:02:20.068Z,97340.16
2019-04-29T01:03:10.438Z,97342.64
2019-04-29T01:04:00.918Z,97338.32
2019-04-29T01:04:52.789Z,97339.44
2019-04-29T01:05:42.783Z,97336.45
2019-04-29T01:06:32.951Z,97334.53
2019-04-29T01:07:23.577Z,97343.23
2019-04-29T01:08:15.004Z,97335.08
2019-04-29T01:09:06.454Z,97342.98
2019-04-29T01:09:56.710Z,97340.55
2019-04-29T01:10:47.180Z,97339.19
2019-04-29T01:11:38.247Z,97340.80
2019-04-29T01:12:28.544Z,97335.64
2019-04-29T01:13:18.381Z,97332.09
2019-04-29T01:14:08.945Z,97331.88
2019-04-29T01:14:59.665Z,97341.45
2019-04-29T01:15:49.940Z,97333.55
2019-04-29T01:16:40.469Z,97332.98
2019-04-29T01:17:31.387Z,97332.44
2019-04-29T01:18:22.105Z,97335.47
2019-04-29T01:19:12.044Z,97334.10
2019-04-29T01:20:02.244Z,97338.20
2019-04-29T01:20:52.898Z,97338.77
2019-04-29T01:21:43.121Z,97328.39
2019-04-29T01:22:33.946Z,97328.13
2019-04-29T01:23:24.220Z,97329.75
2019-04-29T01:24:14.074Z,97329.50
2019-04-29T01:25:04.600Z,97332.23
2019-04-29T01:25:57.497Z,97332.82
2019-04-29T01:27:05.837Z,97334.74
2019-04-29T01:28:00.913Z,97329.83
2019-04-29T01:28:53.007Z,97332.31
2019-04-29T01:29:43.967Z,97331.25
2019-04-29T01:31:07.378Z,97333.13
2019-04-29T01:31:57.992Z,97332.87
2019-04-29T01:32:48.236Z,97335.91
2019-04-29T01:33:38.624Z,97329.33
2019-04-29T01:34:32.389Z,97329.33
2019-04-29T01:35:22.280Z,97328.52
2019-04-29T01:36:45.218Z,97325.78
2019-04-29T01:37:42.861Z,97329.89
2019-04-29T01:38:33.267Z,97328.52
2019-04-29T01:39:25.782Z,97319.52
2019-04-29T01:40:26.904Z,97324.17
2019-04-29T01:41:18.118Z,97325.53
2019-04-29T01:42:23.706Z,97318.70
2019-04-29T01:43:14.380Z,97323.05
2019-04-29T01:44:06.169Z,97329.64
2019-04-29T01:44:56.224Z,97322.25
2019-04-29T01:45:46.395Z,97322.50
2019-04-29T01:46:37.103Z,97326.91
2019-04-29T01:47:27.597Z,97327.16
2019-04-29T01:48:17.872Z,97327.16
2019-04-29T01:49:08.292Z,97323.30
2019-04-29T01:49:58.495Z,97319.46
2019-04-29T01:50:48.722Z,97323.00
2019-04-29T01:51:39.740Z,97327.91
2019-04-29T01:52:30.083Z,97316.42
2019-04-29T01:53:20.441Z,97321.30
2019-04-29T01:54:10.867Z,97322.66
2019-04-29T01:55:01.426Z,97321.55
2019-04-29T01:55:52.112Z,97320.74
2019-04-29T01:56:42.484Z,97319.07
2019-04-29T01:57:32.971Z,97323.17
2019-04-29T01:58:23.160Z,97325.91
2019-04-29T01:59:13.993Z,97318.52
2019-04-29T02:00:05.565Z,97317.39
2019-04-29T02:00:55.440Z,97319.33
2019-04-29T02:01:46.043Z,97312.73
2019-04-29T02:02:36.243Z,97319.58
2019-04-29T02:03:27.064Z,97318.67
2019-04-29T02:04:18.868Z,97322.78
2019-04-29T02:05:08.991Z,97316.45
2019-04-29T02:05:59.985Z,97318.93
2019-04-29T02:06:50.746Z,97313.72
2019-04-29T02:07:41.189Z,97315.30
2019-04-29T02:08:31.581Z,97310.98
2019-04-29T02:09:31.020Z,97315.30
2019-04-29T02:10:25.764Z,97316.92
2019-04-29T02:11:16.496Z,97310.09
2019-04-29T02:12:06.755Z,97310.90
2019-04-29T02:12:56.920Z,97309.53
2019-04-29T02:13:48.153Z,97305.43
2019-04-29T02:14:39.320Z,97308.97
2019-04-29T02:15:30.479Z,97306.80
2019-04-29T02:16:21.554Z,97307.05
2019-04-29T02:17:11.640Z,97309.78
2019-04-29T02:18:02.744Z,97305.13
2019-04-29T02:18:52.969Z,97314.95
2019-04-29T02:19:43.267Z,97306.73
2019-04-29T02:20:34.417Z,97313.33
2019-04-29T02:21:25.620Z,97307.86
2019-04-29T02:22:47.272Z,97315.81
2019-04-29T02:23:45.401Z,97307.35
2019-04-29T02:24:38.608Z,97316.67
2019-04-29T02:25:33.967Z,97316.20
2019-04-29T02:26:24.035Z,97314.58
2019-04-29T02:27:14.127Z,97317.31
2019-04-29T02:28:04.175Z,97312.73
2019-04-29T02:28:54.616Z,97317.39
2019-04-29T02:29:45.125Z,97319.33
2019-04-29T02:30:42.829Z,97310.31
2019-04-29T02:31:39.436Z,97314.41
2019-04-29T02:32:30.065Z,97311.68
2019-04-29T02:33:20.313Z,97310.56
2019-04-29T02:34:10.544Z,97311.13
2019-04-29T02:35:01.935Z,97311.13
2019-04-29T02:35:52.953Z,97308.14
2019-04-29T02:36:43.149Z,97303.78
2019-04-29T02:37:35.464Z,97305.70
2019-04-29T02:38:42.226Z,97307.08
2019-04-29T02:39:40.505Z,97307.63
2019-04-29T02:40:36.005Z,97308.22
2019-04-29T02:41:47.680Z,97299.21
2019-04-29T02:42:47.583Z,97306.60
2019-04-29T02:43:37.965Z,97308.27
2019-04-29T02:44:28.475Z,97298.20
2019-04-29T02:45:21.335Z,97301.83
2019-04-29T02:46:11.749Z,97296.36
2019-04-29T02:47:01.888Z,97298.59
2019-04-29T02:47:52.362Z,97299.15
2019-04-29T02:48:43.042Z,97298.59
2019-04-29T02:49:33.347Z,97301.11
2019-04-29T02:50:23.446Z,97299.48
2019-04-29T02:51:14.510Z,97299.23
2019-04-29T02:52:04.769Z,97305.26
2019-04-29T02:52:55.113Z,97307.44
2019-04-29T02:53:45.662Z,97297.87
2019-04-29T02:54:37.302Z,97304.45
2019-04-29T02:55:33.869Z,97309.91
2019-04-29T02:56:23.789Z,97312.89
2019-04-29T02:57:19.860Z,97312.09
2019-04-29T02:58:28.245Z,97308.80
2019-04-29T02:59:19.831Z,97316.74
2019-04-29T03:00:26.057Z,97312.39
2019-04-29T03:01:32.329Z,97321.40
2019-04-29T03:02:37.133Z,97318.45
2019-04-29T03:03:53.713Z,97312.17
2019-04-29T03:05:02.058Z,97313.54
2019-04-29T03:05:57.553Z,97310.80
2019-04-29T03:06:47.941Z,97321.73
2019-04-29T03:07:38.950Z,97317.64
2019-04-29T03:08:29.350Z,97320.59
2019-04-29T03:09:19.348Z,97325.50
2019-04-29T03:10:09.687Z,97315.38
2019-04-29T03:11:00.076Z,97322.77
2019-04-29T03:11:50.307Z,97315.63
2019-04-29T03:12:40.768Z,97319.98
2019-04-29T03:13:32.794Z,97322.72
2019-04-29T03:14:24.680Z,97316.91
2019-04-29T03:15:23.050Z,97324.55
2019-04-29T03:16:12.928Z,97325.92
2019-04-29T03:17:03.762Z,97320.45
2019-04-29T03:17:53.595Z,97311.70
2019-04-29T03:18:46.985Z,97317.42
2019-04-29T03:19:37.563Z,97314.69
2019-04-29T03:20:53.576Z,97320.96
2019-04-29T03:21:49.715Z,97317.11
2019-04-29T03:22:40.186Z,97308.11
2019-04-29T03:23:30.748Z,97319.29
2019-04-29T03:24:21.483Z,97313.02
2019-04-29T03:25:11.601Z,97310.84
2019-04-29T03:26:02.647Z,97315.75
2019-04-29T03:26:53.659Z,97317.92
2019-04-29T03:27:44.415Z,97314.12
2019-04-29T03:28:34.587Z,97305.63
2019-04-29T03:29:25.353Z,97313.57
2019-04-29T03:30:15.726Z,97304.26
2019-04-29T03:31:05.923Z,97301.83
2019-04-29T03:31:56.886Z,97301.02
2019-04-29T03:32:47.491Z,97310.03
2019-04-29T03:33:38.053Z,97308.66
2019-04-29T03:34:29.033Z,97310.50
2019-04-29T03:35:20.128Z,97314.60
2019-04-29T03:36:10.608Z,97304.81
2019-04-29T03:37:01.534Z,97316.56
2019-04-29T03:37:52.349Z,97312.68
2019-04-29T03:38:42.144Z,97309.14
2019-04-29T03:39:32.555Z,97310.28
2019-04-29T03:40:23.351Z,97314.60
2019-04-29T03:41:13.569Z,97307.55
2019-04-29T03:42:07.179Z,97310.84
2019-04-29T03:42:54.500Z,97311.09
2019-04-29T03:43:44.888Z,97305.03
2019-04-29T03:44:35.517Z,97300.16
2019-04-29T03:45:25.880Z,97300.38
2019-04-29T03:46:16.839Z,97303.92
2019-04-29T03:47:07.638Z,97305.54
2019-04-29T03:47:58.219Z,97303.62
2019-04-29T03:48:48.721Z,97297.03
2019-04-29T03:49:38.851Z,97305.54
2019-04-29T03:50:29.297Z,97295.67
2019-04-29T03:51:20.095Z,97298.41
2019-04-29T03:52:10.779Z,97298.15
2019-04-29T03:53:00.632Z,97291.88
2019-04-29T03:53:51.461Z,97295.72
2019-04-29T03:54:42.128Z,97297.90
2019-04-29T03:55:39.828Z,97295.97
2019-04-29T03:56:22.521Z,97294.91
2019-04-29T03:57:12.761Z,97287.86
2019-04-29T03:58:03.574Z,97300.16
2019-04-29T03:58:53.335Z,97300.72
2019-04-29T03:59:43.721Z,97301.52
2019-04-29T04:00:34.231Z,97296.05
2019-04-29T04:01:44.513Z,97295.25
2019-04-29T04:02:45.832Z,97295.80
2019-04-29T04:03:41.249Z,97293.33
2019-04-29T04:04:50.171Z,97290.34
2019-04-29T04:06:06.120Z,97294.44
2019-04-29T04:07:15.818Z,97298.84
2019-04-29T04:08:26.257Z,97299.41
2019-04-29T04:09:19.516Z,97299.15
2019-04-29T04:10:09.336Z,97300.85
2019-04-29T04:10:59.622Z,97300.05
2019-04-29T04:11:51.107Z,97299.23
2019-04-29T04:12:41.340Z,97298.67
2019-04-29T04:13:32.228Z,97303.08
2019-04-29T04:14:22.197Z,97295.69
2019-04-29T04:15:12.409Z,97293.27
2019-04-29T04:16:02.969Z,97302.83
2019-04-29T04:17:28.435Z,97295.22
2019-04-29T04:18:25.840Z,97299.06
2019-04-29T04:19:16.152Z,97303.47
2019-04-29T04:20:06.780Z,97295.02
2019-04-29T04:20:57.427Z,97297.53
2019-04-29T04:21:47.811Z,97304.36
2019-04-29T04:22:48.318Z,97308.20
2019-04-29T04:23:38.511Z,97302.74
2019-04-29T04:24:28.659Z,97303.05
2019-04-29T04:25:18.862Z,97305.78
2019-04-29T04:26:09.230Z,97307.95
2019-04-29T04:26:59.721Z,97308.77
2019-04-29T04:27:50.336Z,97305.22
2019-04-29T04:28:41.043Z,97309.87
2019-04-29T04:29:31.690Z,97306.59
2019-04-29T04:30:22.586Z,97312.86
2019-04-29T04:31:13.776Z,97307.95
2019-04-29T04:32:04.371Z,97309.32
2019-04-29T04:32:54.850Z,97306.89
2019-04-29T04:33:46.135Z,97310.18
2019-04-29T04:34:36.456Z,97313.72
2019-04-29T04:35:27.292Z,97313.17
2019-04-29T04:36:17.528Z,97304.50
2019-04-29T04:37:08.222Z,97305.61
2019-04-29T04:37:58.462Z,97309.70
2019-04-29T04:38:48.559Z,97309.41
2019-04-29T04:39:38.875Z,97304.80
2019-04-29T04:40:35.238Z,97303.43
2019-04-29T04:41:26.018Z,97306.97
2019-04-29T04:42:16.963Z,97306.97
2019-04-29T04:43:07.412Z,97301.51
2019-04-29T04:43:57.670Z,97306.42
2019-04-29T04:44:48.760Z,97304.80
2019-04-29T04:45:39.733Z,97311.88
2019-04-29T04:46:30.097Z,97303.69
2019-04-29T04:47:20.383Z,97312.69
2019-04-29T04:48:10.470Z,97307.78
2019-04-29T04:49:00.773Z,97313.50
2019-04-29T04:49:51.432Z,97310.77
2019-04-29T04:50:41.686Z,97314.61
2019-04-29T04:51:32.488Z,97313.80
2019-04-29T04:52:22.768Z,97319.02
2019-04-29T04:53:13.627Z,97311.37
2019-04-29T04:54:03.915Z,97314.44
2019-04-29T04:54:54.825Z,97314.19
2019-04-29T04:55:45.405Z,97309.84
2019-04-29T04:56:36.256Z,97317.23
2019-04-29T04:57:26.412Z,97318.34
2019-04-29T04:58:17.934Z,97314.80
2019-04-29T04:59:08.269Z,97321.41
2019-04-29T04:59:58.525Z,97321.62
2019-04-29T05:00:49.545Z,97320.59
2019-04-29T05:01:40.230Z,97320.03
2019-04-29T05:02:30.392Z,97322.52
2019-04-29T05:03:21.690Z,97316.24
2019-04-29T05:04:12.247Z,97318.98
2019-04-29T05:05:03.006Z,97312.45
2019-04-29T05:05:54.047Z,97313.81
2019-04-29T05:06:44.324Z,97317.91
2019-04-29T05:07:35.027Z,97320.64
2019-04-29T05:08:24.929Z,97321.45
2019-04-29T05:09:15.463Z,97320.64
2019-04-29T05:10:06.702Z,97330.20
2019-04-29T05:10:57.218Z,97327.72
2019-04-29T05:11:48.328Z,97324.74
2019-04-29T05:12:39.411Z,97327.25
2019-04-29T05:13:30.533Z,97332.94
2019-04-29T05:14:20.952Z,97331.34
2019-04-29T05:15:11.195Z,97327.25
2019-04-29T05:16:01.963Z,97327.00
2019-04-29T05:16:52.324Z,97328.66
2019-04-29T05:17:42.362Z,97329.47
2019-04-29T05:18:33.207Z,97334.94
2019-04-29T05:19:24.038Z,97331.14
2019-04-29T05:20:14.723Z,97333.87
2019-04-29T05:21:05.604Z,97333.06
2019-04-29T05:21:56.529Z,97336.38
2019-04-29T05:22:58.666Z,97335.02
2019-04-29T05:23:48.844Z,97339.89
2019-04-29T05:24:39.503Z,97332.33
2019-04-29T05:25:31.316Z,97338.09
2019-04-29T05:26:21.593Z,97335.70
2019-04-29T05:27:13.396Z,97343.64
2019-04-29T05:28:04.172Z,97340.40
2019-04-29T05:28:54.625Z,97337.45
2019-04-29T05:29:44.824Z,97333.09
2019-04-29T05:30:36.131Z,97344.02
2019-04-29T05:31:26.049Z,97336.13
2019-04-29T05:32:16.342Z,97338.38
2019-04-29T05:33:06.962Z,97342.22
2019-04-29T05:33:57.625Z,97343.89
2019-04-29T05:34:48.511Z,97343.08
2019-04-29T05:35:56.842Z,97344.48
2019-04-29T05:36:51.488Z,97345.05
2019-04-29T05:37:52.795Z,97337.16
2019-04-29T05:38:55.927Z,97337.70
2019-04-29T05:39:46.439Z,97336.12
2019-04-29T05:40:39.788Z,97336.67
2019-04-29T05:41:34.338Z,97338.34
2019-04-29T05:42:20.773Z,97332.33
2019-04-29T05:43:11.446Z,97336.42
2019-04-29T05:44:30.854Z,97336.42
2019-04-29T05:45:31.974Z,97333.13
2019-04-29T05:46:51.168Z,97331.77
2019-04-29T05:47:45.337Z,97330.95
2019-04-29T05:48:35.966Z,97339.15
2019-04-29T05:49:30.927Z,97341.07
2019-04-29T05:50:33.789Z,97337.78
2019-04-29T05:51:42.677Z,97341.07
2019-04-29T05:52:40.890Z,97330.15
2019-04-29T05:53:47.869Z,97327.97
2019-04-29T05:54:35.144Z,97331.27
2019-04-29T05:55:25.828Z,97333.44
2019-04-29T05:56:16.091Z,97330.70
2019-04-29T05:57:06.273Z,97335.36
2019-04-29T05:58:10.547Z,97330.70
2019-04-29T05:59:00.650Z,97330.70
2019-04-29T05:59:51.530Z,97331.52
2019-04-29T06:00:44.475Z,97326.86
2019-04-29T06:01:34.813Z,97330.70
2019-04-29T06:02:33.411Z,97320.59
2019-04-29T06:03:15.903Z,97329.34
2019-04-29T06:04:06.617Z,97327.13
2019-04-29T06:04:57.639Z,97326.56
2019-04-29T06:05:48.658Z,97322.47
2019-04-29T06:06:38.964Z,97331.14
2019-04-29T06:07:29.721Z,97322.39
2019-04-29T06:08:20.528Z,97325.11
2019-04-29T06:09:16.944Z,97331.59
2019-04-29T06:10:01.407Z,97323.66
2019-04-29T06:10:53.304Z,97331.00
2019-04-29T06:11:45.490Z,97327.13
2019-04-29T06:12:36.433Z,97332.84
2019-04-29T06:13:27.627Z,97317.27
2019-04-29T06:14:22.065Z,97329.81
2019-04-29T06:15:11.263Z,97320.25
2019-04-29T06:16:01.131Z,97312.53
2019-04-29T06:16:52.952Z,97317.99
2019-04-29T06:17:44.707Z,97315.27
2019-04-29T06:18:33.746Z,97320.73
2019-04-29T06:19:23.997Z,97323.70
2019-04-29T06:20:17.993Z,97320.42
2019-04-29T06:21:09.341Z,97313.04
2019-04-29T06:21:55.395Z,97325.03
2019-04-29T06:22:46.343Z,97320.34
2019-04-29T06:23:37.351Z,97324.14
2019-04-29T06:24:28.004Z,97327.13
2019-04-29T06:25:19.204Z,97333.06
2019-04-29T06:26:10.225Z,97323.76
2019-04-29T06:27:01.799Z,97325.13
2019-04-29T06:27:52.414Z,97322.09
2019-04-29T06:28:43.123Z,97327.00
2019-04-29T06:29:33.956Z,97326.92
2019-04-29T06:30:24.947Z,97320.59
2019-04-29T06:31:15.577Z,97326.87
2019-04-29T06:32:05.775Z,97321.62
2019-04-29T06:32:56.661Z,97322.94
2019-04-29T06:33:47.341Z,97319.32
2019-04-29T06:34:40.192Z,97327.47
2019-04-29T06:35:29.773Z,97324.98
2019-04-29T06:36:20.222Z,97317.27
2019-04-29T06:37:11.307Z,97320.50
2019-04-29T06:38:01.812Z,97328.63
2019-04-29T06:38:51.987Z,97324.77
2019-04-29T06:39:42.903Z,97319.56
2019-04-29T06:40:35.497Z,97310.80
2019-04-29T06:41:24.482Z,97324.39
2019-04-29T06:42:15.568Z,97314.82
2019-04-29T06:43:05.757Z,97317.81
2019-04-29T06:43:56.429Z,97310.42
2019-04-29T06:44:49.013Z,97316.44
2019-04-29T06:45:38.331Z,97304.95
2019-04-29T06:46:28.250Z,97318.62
2019-04-29T06:47:18.610Z,97315.88
2019-04-29T06:48:09.967Z,97313.41
2019-04-29T06:49:10.135Z,97313.88
2019-04-29T06:49:52.189Z,97315.24
2019-04-29T06:50:43.262Z,97316.30
2019-04-29T06:51:34.356Z,97319.84
2019-04-29T06:52:25.514Z,97311.64
2019-04-29T06:53:21.359Z,97320.66
2019-04-29T06:54:06.922Z,97319.29
2019-04-29T06:54:57.164Z,97318.14
2019-04-29T06:55:47.723Z,97310.50
2019-04-29T06:56:38.188Z,97314.86
2019-04-29T06:57:28.804Z,97321.69
2019-04-29T06:58:19.600Z,97312.93
2019-04-29T06:59:12.063Z,97318.09
2019-04-29T06:59:59.974Z,97314.24
2019-04-29T07:00:51.254Z,97312.88
2019-04-29T07:01:41.461Z,97308.22
2019-04-29T07:02:31.964Z,97300.49
2019-04-29T07:03:25.613Z,97306.77
2019-04-29T07:04:13.226Z,97315.22
2019-04-29T07:05:04.636Z,97309.20
2019-04-29T07:05:55.078Z,97305.91
2019-04-29T07:06:56.643Z,97309.67
2019-04-29T07:07:36.833Z,97300.10
2019-04-29T07:08:26.920Z,97310.17
2019-04-29T07:09:17.522Z,97306.88
2019-04-29T07:10:08.594Z,97304.15
2019-04-29T07:11:01.121Z,97305.98
2019-04-29T07:11:51.030Z,97293.44
2019-04-29T07:12:42.797Z,97298.68
2019-04-29T07:13:33.164Z,97303.00
2019-04-29T07:14:24.207Z,97297.31
2019-04-29T07:15:14.070Z,97302.23
2019-04-29T07:16:04.630Z,97295.70
2019-04-29T07:16:55.029Z,97299.23
2019-04-29T07:17:45.719Z,97304.38
2019-04-29T07:18:40.309Z,97305.73
2019-04-29T07:19:26.594Z,97303.59
2019-04-29T07:20:17.551Z,97300.27
2019-04-29T07:21:11.999Z,97304.88
2019-04-29T07:21:58.100Z,97304.31
2019-04-29T07:22:49.008Z,97303.42
2019-04-29T07:23:39.451Z,97311.31
2019-04-29T07:24:30.220Z,97304.73
2019-04-29T07:25:24.644Z,97303.05
2019-04-29T07:26:12.676Z,97309.30
2019-04-29T07:27:04.494Z,97297.50
2019-04-29T07:27:54.299Z,97300.48
2019-04-29T07:28:48.704Z,97308.13
2019-04-29T07:29:38.140Z,97291.17
2019-04-29T07:30:29.160Z,97294.46
2019-04-29T07:31:17.467Z,97297.41
2019-04-29T07:32:09.325Z,97300.40
2019-04-29T07:32:59.934Z,97302.58
2019-04-29T07:33:53.662Z,97297.36
2019-04-29T07:34:40.887Z,97302.83
2019-04-29T07:35:31.499Z,97311.28
2019-04-29T07:36:23.900Z,97307.73
2019-04-29T07:37:13.004Z,97311.03
2019-04-29T07:38:04.528Z,97309.66
2019-04-29T07:38:56.558Z,97306.93
2019-04-29T07:39:44.580Z,97309.66
2019-04-29T07:40:38.799Z,97310.53
2019-04-29T07:41:25.363Z,97308.94
2019-04-29T07:42:15.945Z,97306.20
2019-04-29T07:43:07.844Z,97311.42
2019-04-29T07:43:57.360Z,97295.58
2019-04-29T07:45:06.631Z,97304.09
2019-04-29T07:46:22.549Z,97294.52
2019-04-29T07:47:13.812Z,97291.53
2019-04-29T07:48:06.285Z,97298.95
2019-04-29T07:49:01.682Z,97303.62
2019-04-29T07:49:50.925Z,97300.55
2019-04-29T07:50:37.462Z,97297.59
2019-04-29T07:51:28.802Z,97297.25
2019-04-29T07:52:18.848Z,97299.98
2019-04-29T07:53:08.989Z,97306.20
2019-04-29T07:54:00.364Z,97303.22
2019-04-29T07:54:56.087Z,97300.40
2019-04-29T07:55:43.552Z,97293.81
2019-04-29T07:56:37.899Z,97290.77
2019-04-29T07:57:24.835Z,97298.42
2019-04-29T07:58:16.315Z,97299.20
2019-04-29T07:59:06.706Z,97304.92
2019-04-29T07:59:57.622Z,97301.63
2019-04-29T08:00:49.998Z,97289.31
2019-04-29T08:01:38.980Z,97295.34
2019-04-29T08:02:29.018Z,97298.89
2019-04-29T08:03:20.107Z,97294.78
2019-04-29T08:04:11.066Z,97299.14
2019-04-29T08:05:01.399Z,97298.83
2019-04-29T08:05:52.825Z,97290.29
2019-04-29T08:06:44.896Z,97291.91
2019-04-29T08:07:34.531Z,97295.36
2019-04-29T08:08:25.147Z,97289.83
2019-04-29T08:09:15.618Z,97294.41
2019-04-29T08:10:22.522Z,97295.97
2019-04-29T08:10:56.926Z,97297.24
2019-04-29T08:11:47.186Z,97299.67
2019-04-29T08:12:38.292Z,97296.84
2019-04-29T08:13:29.575Z,97295.17
2019-04-29T08:14:19.968Z,97300.55
2019-04-29T08:15:10.177Z,97307.08
2019-04-29T08:16:00.580Z,97305.06
2019-04-29T08:16:50.789Z,97306.68
2019-04-29T08:17:41.530Z,97300.55
2019-04-29T08:18:32.272Z,97306.53
2019-04-29T08:19:24.583Z,97307.34
2019-04-29T08:20:12.913Z,97301.77
2019-04-29T08:21:04.605Z,97307.19
2019-04-29T08:21:55.200Z,97312.91
2019-04-29T08:22:46.072Z,97309.02
2019-04-29T08:23:41.227Z,97310.64
2019-04-29T08:24:27.469Z,97309.21
2019-04-29T08:25:21.815Z,97305.11
2019-04-29T08:26:09.307Z,97312.50
2019-04-29T08:26:59.401Z,97312.73
2019-04-29T08:27:50.480Z,97313.88
2019-04-29T08:28:40.522Z,97309.43
2019-04-29T08:29:35.718Z,97313.78
2019-04-29T08:30:23.521Z,97308.62
2019-04-29T08:31:16.672Z,97314.09
2019-04-29T08:32:05.584Z,97314.69
2019-04-29T08:32:56.323Z,97318.45
2019-04-29T08:33:48.553Z,97309.43
2019-04-29T08:34:40.765Z,97310.58
2019-04-29T08:35:28.133Z,97302.13
2019-04-29T08:36:19.430Z,97308.41
2019-04-29T08:37:10.143Z,97317.73
2019-04-29T08:38:00.919Z,97312.50
2019-04-29T08:38:51.048Z,97314.44
2019-04-29T08:39:41.630Z,97314.19
2019-04-29T08:40:34.242Z,97314.19
2019-04-29T08:41:28.481Z,97313.38
2019-04-29T08:42:14.347Z,97312.01
2019-04-29T08:43:25.528Z,97315.30
2019-04-29T08:44:35.566Z,97311.55
2019-04-29T08:45:34.643Z,97315.39
2019-04-29T08:46:27.592Z,97307.25
2019-04-29T08:47:23.590Z,97302.89
2019-04-29T08:48:12.772Z,97310.88
2019-04-29T08:49:06.003Z,97303.23
2019-04-29T08:49:53.677Z,97308.45
2019-04-29T08:50:44.266Z,97315.86
2019-04-29T08:51:34.754Z,97307.95
2019-04-29T08:52:25.747Z,97312.06
2019-04-29T08:53:16.699Z,97306.38
2019-04-29T08:54:07.061Z,97316.50
2019-04-29T08:54:57.347Z,97314.64
2019-04-29T08:55:48.587Z,97303.78
2019-04-29T08:56:42.547Z,97306.27
2019-04-29T08:57:31.840Z,97309.87
2019-04-29T08:58:20.211Z,97305.00
2019-04-29T08:59:11.580Z,97306.11
2019-04-29T09:00:02.005Z,97301.20
2019-04-29T09:00:55.695Z,97297.41
2019-04-29T09:01:44.694Z,97301.51
2019-04-29T09:02:35.904Z,97296.03
2019-04-29T09:03:39.608Z,97295.01
2019-04-29T09:04:17.523Z,97297.49
2019-04-29T09:05:11.318Z,97298.86
2019-04-29T09:06:05.579Z,97296.13
2019-04-29T09:06:49.740Z,97294.76
2019-04-29T09:07:41.280Z,97300.54
2019-04-29T09:08:32.821Z,97297.24
2019-04-29T09:09:29.314Z,97300.79
2019-04-29T09:10:12.053Z,97296.38
2019-04-29T09:11:03.385Z,97293.64
2019-04-29T09:11:54.006Z,97285.09
2019-04-29T09:12:44.427Z,97295.73
2019-04-29T09:13:34.599Z,97290.50
2019-04-29T09:14:25.849Z,97298.06
2019-04-29T09:15:16.077Z,97295.23
2019-04-29T09:16:07.567Z,97282.55
2019-04-29T09:16:58.065Z,97290.11
2019-04-29T09:17:48.845Z,97290.52
2019-04-29T09:18:39.672Z,97296.39
2019-04-29T09:19:30.311Z,97291.98
2019-04-29T09:20:21.487Z,97297.36
2019-04-29T09:21:11.991Z,97292.05
2019-04-29T09:22:03.593Z,97287.63
2019-04-29T09:22:56.386Z,97282.66
2019-04-29T09:23:47.524Z,97289.64
2019-04-29T09:24:38.567Z,97286.34
2019-04-29T09:25:42.835Z,97282.95
2019-04-29T09:26:45.347Z,97284.02
2019-04-29T09:27:40.780Z,97290.52
2019-04-29T09:28:28.300Z,97282.86
2019-04-29T09:29:32.442Z,97289.14
2019-04-29T09:30:24.220Z,97287.78
2019-04-29T09:31:14.428Z,97287.22
2019-04-29T09:32:04.842Z,97288.59
2019-04-29T09:32:55.450Z,97284.23
2019-04-29T09:33:49.081Z,97286.66
2019-04-29T09:34:37.248Z,97280.06
2019-04-29T09:35:28.892Z,97281.12
2019-04-29T09:36:19.084Z,97285.44
2019-04-29T09:37:09.209Z,97276.11
2019-04-29T09:37:59.708Z,97281.83
2019-04-29T09:38:50.149Z,97284.26
2019-04-29T09:39:43.455Z,97289.39
2019-04-29T09:40:33.799Z,97286.90
2019-04-29T09:41:35.059Z,97281.92
2019-04-29T09:42:31.217Z,97279.64
2019-04-29T09:43:32.772Z,97277.40
2019-04-29T09:44:48.691Z,97285.83
2019-04-29T09:45:47.749Z,97274.56
2019-04-29T09:46:38.803Z,97281.41
2019-04-29T09:47:29.041Z,97276.49
2019-04-29T09:48:19.809Z,97284.15
2019-04-29T09:49:10.287Z,97272.63
2019-04-29T09:50:00.718Z,97271.52
2019-04-29T09:50:51.071Z,97275.87
2019-04-29T09:51:41.413Z,97269.80
2019-04-29T09:52:31.948Z,97271.66
2019-04-29T09:53:23.027Z,97267.23
2019-04-29T09:54:14.561Z,97265.52
2019-04-29T09:55:05.696Z,97272.89
2019-04-29T09:55:54.894Z,97274.73
2019-04-29T09:56:44.769Z,97273.61
2019-04-29T09:57:35.380Z,97273.53
2019-04-29T09:58:26.567Z,97263.05
2019-04-29T09:59:28.950Z,97260.80
2019-04-29T10:00:25.292Z,97264.24
2019-04-29T10:01:33.070Z,97267.69
2019-04-29T10:02:31.318Z,97260.06
2019-04-29T10:03:29.872Z,97262.14
2019-04-29T10:04:55.513Z,97268.19
2019-04-29T10:05:45.433Z,97258.03
2019-04-29T10:06:37.805Z,97258.84
2019-04-29T10:07:28.585Z,97264.56
2019-04-29T10:08:18.956Z,97260.11
2019-04-29T10:09:09.386Z,97258.98
2019-04-29T10:10:02.314Z,97257.30
2019-04-29T10:10:52.128Z,97253.44
2019-04-29T10:11:42.983Z,97248.17
2019-04-29T10:12:33.215Z,97249.78
2019-04-29T10:13:23.102Z,97252.52
2019-04-29T10:14:13.707Z,97248.66
2019-04-29T10:15:04.034Z,97251.40
2019-04-29T10:16:16.917Z,97252.21